createdAt,value
2017-05-15T00:00:55.634Z,102705.84
2017-05-15T00:03:21.497Z,102708.98
2017-05-15T00:05:47.399Z,102710.35
2017-05-15T00:08:13.370Z,102704.11
2017-05-15T00:10:39.203Z,102704.66
2017-05-15T00:13:05.047Z,102710.38
2017-05-15T00:15:31.006Z,102708.63
2017-05-15T00:17:56.837Z,102709.98
2017-05-15T00:20:22.819Z,102714.94
2017-05-15T00:22:48.614Z,102717.16
2017-05-15T00:25:14.481Z,102717.62
2017-05-15T00:27:40.388Z,102716.81
2017-05-15T00:30:06.222Z,102719.52
2017-05-15T00:32:32.143Z,102719.55
2017-05-15T00:34:57.992Z,102716.45
2017-05-15T00:37:23.828Z,102719.59
2017-05-15T00:39:49.666Z,102722.33
2017-05-15T00:42:15.538Z,102718.73
2017-05-15T00:44:41.506Z,102714.27
2017-05-15T00:47:07.397Z,102714.70
2017-05-15T00:49:33.239Z,102703.88
2017-05-15T00:51:59.115Z,102717.41
2017-05-15T00:54:24.963Z,102715.63
2017-05-15T00:56:50.922Z,102716.53
2017-05-15T00:59:17.292Z,102720.63
2017-05-15T01:01:43.168Z,102726.01
2017-05-15T01:04:08.996Z,102726.91
2017-05-15T01:06:34.900Z,102727.40
2017-05-15T01:09:00.929Z,102711.98
2017-05-15T01:11:26.777Z,102717.17
2017-05-15T01:13:52.685Z,102719.02
2017-05-15T01:16:18.593Z,102721.27
2017-05-15T01:18:44.500Z,102718.61
2017-05-15T01:21:10.450Z,102721.28
2017-05-15T01:23:37.778Z,102719.07
2017-05-15T01:26:03.621Z,102720.41
2017-05-15T01:28:30.958Z,102719.56
2017-05-15T01:30:56.828Z,102724.45
2017-05-15T01:33:22.755Z,102722.27
2017-05-15T01:35:48.662Z,102731.66
2017-05-15T01:38:14.549Z,102735.70
2017-05-15T01:40:40.397Z,102730.78
2017-05-15T01:43:06.233Z,102741.53
2017-05-15T01:45:32.199Z,102737.06
2017-05-15T01:47:58.071Z,102739.31
2017-05-15T01:50:24.691Z,102748.25
2017-05-15T01:52:50.578Z,102747.81
2017-05-15T01:55:16.424Z,102736.22
2017-05-15T01:57:42.442Z,102747.39
2017-05-15T02:00:08.320Z,102745.61
2017-05-15T02:02:34.213Z,102750.08
2017-05-15T02:05:00.013Z,102753.70
2017-05-15T02:07:26.727Z,102751.03
2017-05-15T02:09:52.688Z,102753.72
2017-05-15T02:12:19.290Z,102764.43
2017-05-15T02:14:45.126Z,102762.23
2017-05-15T02:17:10.987Z,102769.86
2017-05-15T02:19:36.830Z,102766.28
2017-05-15T02:22:02.786Z,102764.50
2017-05-15T02:24:28.672Z,102766.30
2017-05-15T02:26:54.518Z,102768.13
2017-05-15T02:29:20.385Z,102765.08
2017-05-15T02:31:46.242Z,102773.09
2017-05-15T02:34:12.175Z,102774.02
2017-05-15T02:36:38.092Z,102774.91
2017-05-15T02:39:03.935Z,102780.73
2017-05-15T02:41:29.784Z,102777.18
2017-05-15T02:43:55.666Z,102779.44
2017-05-15T02:46:21.585Z,102780.80
2017-05-15T02:48:47.434Z,102777.41
2017-05-15T02:51:13.284Z,102789.34
2017-05-15T02:53:39.117Z,102785.31
2017-05-15T02:56:04.946Z,102782.66
2017-05-15T02:58:30.899Z,102784.03
2017-05-15T03:00:56.781Z,102780.05
2017-05-15T03:03:22.667Z,102779.14
2017-05-15T03:05:49.313Z,102780.92
2017-05-15T03:08:15.325Z,102760.29
2017-05-15T03:10:41.330Z,102778.28
2017-05-15T03:13:07.142Z,102777.41
2017-05-15T03:15:33.008Z,102776.97
2017-05-15T03:17:58.913Z,102787.24
2017-05-15T03:20:25.508Z,102781.89
2017-05-15T03:22:51.438Z,102783.71
2017-05-15T03:25:17.284Z,102787.31
2017-05-15T03:27:43.899Z,102782.81
2017-05-15T03:30:09.782Z,102776.27
2017-05-15T03:32:35.639Z,102790.43
2017-05-15T03:35:01.602Z,102797.61
2017-05-15T03:37:27.469Z,102795.38
2017-05-15T03:39:53.317Z,102795.87
2017-05-15T03:42:19.174Z,102799.05
2017-05-15T03:44:45.032Z,102794.20
2017-05-15T03:47:11.019Z,102799.12
2017-05-15T03:49:36.906Z,102807.08
2017-05-15T03:52:03.520Z,102812.46
2017-05-15T03:54:29.427Z,102805.38
2017-05-15T03:56:55.209Z,102804.54
2017-05-15T03:59:21.142Z,102810.33
2017-05-15T04:01:46.981Z,102806.75
2017-05-15T04:04:12.857Z,102802.48
2017-05-15T04:06:39.450Z,102813.93
2017-05-15T04:09:05.346Z,102817.05
2017-05-15T04:11:31.251Z,102817.53
2017-05-15T04:13:57.094Z,102818.45
2017-05-15T04:16:22.982Z,102823.39
2017-05-15T04:18:48.940Z,102828.33
2017-05-15T04:21:15.554Z,102830.56
2017-05-15T04:23:42.363Z,102832.37
2017-05-15T04:26:08.197Z,102829.30
2017-05-15T04:28:34.042Z,102833.31
2017-05-15T04:31:00.024Z,102835.11
2017-05-15T04:33:25.887Z,102839.58
2017-05-15T04:35:51.812Z,102840.95
2017-05-15T04:38:17.699Z,102838.81
2017-05-15T04:40:43.574Z,102849.05
2017-05-15T04:43:09.447Z,102845.86
2017-05-15T04:45:35.290Z,102848.09
2017-05-15T04:48:01.228Z,102847.66
2017-05-15T04:50:27.067Z,102849.02
2017-05-15T04:52:52.910Z,102850.37
2017-05-15T04:55:18.926Z,102850.40
2017-05-15T04:57:44.779Z,102846.84
2017-05-15T05:00:11.439Z,102845.92
2017-05-15T05:02:37.290Z,102853.53
2017-05-15T05:05:03.215Z,102849.07
2017-05-15T05:07:29.089Z,102857.09
2017-05-15T05:09:54.974Z,102857.09
2017-05-15T05:12:20.977Z,102855.31
2017-05-15T05:14:46.810Z,102863.35
2017-05-15T05:17:12.675Z,102864.72
2017-05-15T05:22:33.447Z,102867.47
2017-05-15T05:33:23.253Z,102883.72
2017-05-15T05:36:02.143Z,102884.48
2017-05-15T05:41:23.355Z,102876.89
2017-05-15T05:46:21.739Z,102886.25
2017-05-15T05:48:47.590Z,102884.41
2017-05-15T05:51:13.450Z,102903.20
2017-05-15T05:53:39.379Z,102905.55
2017-05-15T05:56:23.932Z,102898.98
2017-05-15T05:58:49.814Z,102902.52
2017-05-15T06:04:21.408Z,102897.91
2017-05-15T06:09:54.965Z,102896.70
2017-05-15T06:12:39.826Z,102897.56
2017-05-15T06:18:12.328Z,102889.83
2017-05-15T06:20:38.186Z,102889.21
2017-05-15T06:23:22.634Z,102886.45
2017-05-15T06:26:07.109Z,102898.37
2017-05-15T06:28:33.731Z,102903.17
2017-05-15T06:30:59.541Z,102899.52
2017-05-15T06:33:25.503Z,102904.61
2017-05-15T06:35:51.501Z,102901.05
2017-05-15T06:38:37.154Z,102909.09
2017-05-15T06:41:21.558Z,102910.32
2017-05-15T06:43:47.511Z,102914.71
2017-05-15T06:46:13.366Z,102920.38
2017-05-15T06:48:39.247Z,102931.91
2017-05-15T06:51:05.103Z,102928.25
2017-05-15T06:53:30.930Z,102938.47
2017-05-15T06:55:56.878Z,102938.86
2017-05-15T06:58:23.454Z,102944.59
2017-05-15T07:00:49.305Z,102943.24
2017-05-15T07:03:15.198Z,102952.14
2017-05-15T07:05:41.057Z,102960.09
2017-05-15T07:08:06.944Z,102957.41
2017-05-15T07:10:32.813Z,102959.17
2017-05-15T07:12:58.652Z,102956.00
2017-05-15T07:15:24.507Z,102950.55
2017-05-15T07:17:50.454Z,102955.01
2017-05-15T07:20:16.314Z,102958.98
2017-05-15T07:22:42.202Z,102969.73
2017-05-15T07:27:42.576Z,102975.09
2017-05-15T07:30:09.166Z,102980.85
2017-05-15T07:32:35.003Z,102975.00
2017-05-15T07:35:00.919Z,102973.16
2017-05-15T07:37:26.881Z,102972.20
2017-05-15T07:39:52.710Z,102967.70
2017-05-15T07:42:18.563Z,102969.48
2017-05-15T07:44:44.419Z,102976.14
2017-05-15T07:47:10.306Z,102977.05
2017-05-15T07:49:36.261Z,102981.46
2017-05-15T07:52:02.109Z,102973.39
2017-05-15T07:54:27.974Z,102981.39
2017-05-15T07:56:53.825Z,102981.42
2017-05-15T07:59:19.675Z,102982.31
2017-05-15T08:01:45.615Z,102985.87
2017-05-15T08:04:11.462Z,102988.54
2017-05-15T08:06:37.337Z,102987.70
2017-05-15T08:09:03.203Z,102981.00
2017-05-15T08:11:29.090Z,102988.14
2017-05-15T08:13:55.037Z,102987.29
2017-05-15T08:16:20.887Z,102988.56
2017-05-15T08:18:46.750Z,102992.08
2017-05-15T08:21:12.609Z,102986.18
2017-05-15T08:23:38.462Z,102988.81
2017-05-15T08:26:04.410Z,102992.35
2017-05-15T08:28:30.258Z,102994.09
2017-05-15T08:30:56.147Z,102996.72
2017-05-15T08:33:22.000Z,102996.65
2017-05-15T08:35:47.882Z,102986.31
2017-05-15T08:38:13.814Z,102985.42
2017-05-15T08:40:39.667Z,102988.08
2017-05-15T08:43:05.646Z,102986.33
2017-05-15T08:45:31.546Z,102995.73
2017-05-15T08:47:58.176Z,102998.50
2017-05-15T08:50:24.095Z,102999.41
2017-05-15T08:52:50.687Z,102994.94
2017-05-15T08:55:16.570Z,102993.48
2017-05-15T08:57:43.170Z,103004.20
2017-05-15T09:00:09.006Z,102999.23
2017-05-15T09:02:34.944Z,103001.45
2017-05-15T09:05:00.808Z,103001.05
2017-05-15T09:07:26.659Z,103000.55
2017-05-15T09:09:52.531Z,102997.86
2017-05-15T09:12:18.390Z,102994.69
2017-05-15T09:14:44.413Z,102992.42
2017-05-15T09:17:10.245Z,102994.64
2017-05-15T09:19:36.154Z,102994.13
2017-05-15T09:22:01.986Z,102996.35
2017-05-15T09:24:27.831Z,102993.77
2017-05-15T09:26:53.998Z,103007.55
2017-05-15T09:29:19.847Z,103002.55
2017-05-15T09:31:45.677Z,103000.33
2017-05-15T09:34:11.553Z,103007.45
2017-05-15T09:36:37.418Z,102997.70
2017-05-15T09:39:03.352Z,102999.09
2017-05-15T09:41:29.247Z,102999.97
2017-05-15T09:43:55.090Z,102996.37
2017-05-15T09:46:20.929Z,103001.26
2017-05-15T09:48:46.782Z,103000.77
2017-05-15T09:51:12.735Z,103004.33
2017-05-15T09:53:38.621Z,102997.11
2017-05-15T09:56:04.467Z,102997.50
2017-05-15T09:58:30.331Z,103001.94
2017-05-15T10:00:56.189Z,103001.45
2017-05-15T10:03:22.119Z,103000.51
2017-05-15T10:05:47.959Z,102996.88
2017-05-15T10:08:13.814Z,102992.87
2017-05-15T10:10:39.689Z,102993.70
2017-05-15T10:13:05.535Z,102997.23
2017-05-15T10:15:31.471Z,102991.81
2017-05-15T10:17:57.314Z,102990.45
2017-05-15T10:20:23.173Z,102983.28
2017-05-15T10:22:49.033Z,102984.59
2017-05-15T10:25:14.885Z,102981.95
2017-05-15T10:27:40.865Z,102978.50
2017-05-15T10:30:06.736Z,102974.81
2017-05-15T10:32:32.576Z,102975.23
2017-05-15T10:34:58.435Z,102975.62
2017-05-15T10:37:24.274Z,102972.49
2017-05-15T10:39:50.275Z,102972.45
2017-05-15T10:42:16.083Z,102969.76
2017-05-15T10:44:41.938Z,102969.25
2017-05-15T10:47:07.800Z,102968.78
2017-05-15T10:49:33.680Z,102974.20
2017-05-15T10:51:59.615Z,102976.84
2017-05-15T10:54:25.463Z,102965.25
2017-05-15T10:56:51.319Z,102969.69
2017-05-15T10:59:17.220Z,102964.34
2017-05-15T11:01:43.083Z,102965.70
2017-05-15T11:04:08.921Z,102967.59
2017-05-15T11:06:34.791Z,102970.71
2017-05-15T11:09:00.648Z,102965.83
2017-05-15T11:11:26.523Z,102965.73
2017-05-15T11:13:52.414Z,102956.27
2017-05-15T11:16:18.270Z,102953.58
2017-05-15T11:18:44.126Z,102959.39
2017-05-15T11:21:09.974Z,102963.73
2017-05-15T11:23:35.875Z,102960.53
2017-05-15T11:26:01.764Z,102951.53
2017-05-15T11:28:27.604Z,102945.63
2017-05-15T11:30:53.478Z,102944.25
2017-05-15T11:33:19.336Z,102944.67
2017-05-15T11:35:45.179Z,102949.95
2017-05-15T11:38:11.033Z,102945.91
2017-05-15T11:40:36.909Z,102954.33
2017-05-15T11:43:02.805Z,102941.72
2017-05-15T11:45:28.648Z,102950.19
2017-05-15T11:47:54.505Z,102950.17
2017-05-15T11:50:20.365Z,102954.22
2017-05-15T11:52:46.208Z,102947.48
2017-05-15T11:55:12.846Z,102950.60
2017-05-15T11:57:38.699Z,102947.02
2017-05-15T12:00:04.550Z,102945.08
2017-05-15T12:02:30.400Z,102948.10
2017-05-15T12:04:57.036Z,102946.73
2017-05-15T12:07:22.915Z,102943.12
2017-05-15T12:09:48.760Z,102940.00
2017-05-15T12:12:14.599Z,102935.14
2017-05-15T12:14:40.488Z,102938.47
2017-05-15T12:17:06.363Z,102936.61
2017-05-15T12:19:32.374Z,102932.47
2017-05-15T12:21:58.226Z,102939.16
2017-05-15T12:24:24.106Z,102934.06
2017-05-15T12:26:50.085Z,102928.69
2017-05-15T12:29:15.965Z,102922.58
2017-05-15T12:31:41.914Z,102926.94
2017-05-15T12:34:07.830Z,102923.81
2017-05-15T12:36:33.673Z,102925.37
2017-05-15T12:38:59.539Z,102928.91
2017-05-15T12:41:25.453Z,102922.60
2017-05-15T12:43:51.833Z,102921.59
2017-05-15T12:46:17.699Z,102920.17
2017-05-15T12:48:44.394Z,102923.34
2017-05-15T12:51:10.302Z,102924.20
2017-05-15T12:53:36.173Z,102925.08
2017-05-15T12:56:02.152Z,102922.34
2017-05-15T12:58:28.049Z,102922.23
2017-05-15T13:00:54.021Z,102919.93
2017-05-15T13:03:20.182Z,102904.44
2017-05-15T13:05:46.072Z,102913.95
2017-05-15T13:08:11.921Z,102912.72
2017-05-15T13:10:37.851Z,102909.05
2017-05-15T13:13:03.709Z,102916.25
2017-05-15T13:15:29.559Z,102908.66
2017-05-15T13:17:55.511Z,102909.13
2017-05-15T13:20:21.362Z,102909.16
2017-05-15T13:22:47.219Z,102902.05
2017-05-15T13:25:13.178Z,102905.16
2017-05-15T13:27:39.071Z,102908.66
2017-05-15T13:30:04.929Z,102904.14
2017-05-15T13:32:30.846Z,102900.52
2017-05-15T13:34:56.754Z,102890.23
2017-05-15T13:37:22.627Z,102894.59
2017-05-15T13:39:48.582Z,102898.59
2017-05-15T13:42:15.941Z,102883.66
2017-05-15T13:44:42.610Z,102889.45
2017-05-15T13:47:08.574Z,102886.38
2017-05-15T13:49:34.411Z,102890.90
2017-05-15T13:52:00.342Z,102892.27
2017-05-15T13:54:26.286Z,102894.95
2017-05-15T13:56:52.169Z,102887.69
2017-05-15T13:59:18.017Z,102868.20
2017-05-15T14:01:44.044Z,102882.84
2017-05-15T14:04:09.891Z,102883.17
2017-05-15T14:06:35.764Z,102878.12
2017-05-15T14:09:01.749Z,102879.95
2017-05-15T14:11:27.573Z,102871.63
2017-05-15T14:13:53.425Z,102871.73
2017-05-15T14:16:19.422Z,102871.20
2017-05-15T14:18:45.279Z,102875.33
2017-05-15T14:21:11.176Z,102867.20
2017-05-15T14:23:37.087Z,102874.64
2017-05-15T14:26:02.938Z,102871.75
2017-05-15T14:28:28.789Z,102862.61
2017-05-15T14:30:54.862Z,102859.72
2017-05-15T14:33:20.738Z,102856.89
2017-05-15T14:35:46.651Z,102854.99
2017-05-15T14:38:12.631Z,102849.52
2017-05-15T14:40:38.493Z,102852.06
2017-05-15T14:43:04.351Z,102845.28
2017-05-15T14:45:30.539Z,102844.44
2017-05-15T14:47:57.125Z,102845.58
2017-05-15T14:52:59.623Z,102841.49
2017-05-15T14:55:25.490Z,102852.36
2017-05-15T14:57:51.401Z,102844.39
2017-05-15T15:00:17.308Z,102843.07
2017-05-15T15:02:43.175Z,102843.48
2017-05-15T15:05:09.030Z,102835.86
2017-05-15T15:07:34.938Z,102835.86
2017-05-15T15:10:00.778Z,102833.14
2017-05-15T15:12:26.629Z,102831.36
2017-05-15T15:14:53.283Z,102828.26
2017-05-15T15:17:19.901Z,102832.73
2017-05-15T15:19:45.727Z,102835.42
2017-05-15T15:22:11.586Z,102831.44
2017-05-15T15:24:37.480Z,102832.88
2017-05-15T15:27:03.386Z,102827.50
2017-05-15T15:29:29.239Z,102837.00
2017-05-15T15:31:55.107Z,102836.12
2017-05-15T15:34:21.032Z,102824.93
2017-05-15T15:36:46.952Z,102824.49
2017-05-15T15:39:12.763Z,102825.84
2017-05-15T15:41:38.798Z,102822.27
2017-05-15T15:44:04.646Z,102828.61
2017-05-15T15:46:31.242Z,102821.92
2017-05-15T15:48:57.162Z,102816.66
2017-05-15T15:51:23.058Z,102817.05
2017-05-15T15:53:48.910Z,102814.91
2017-05-15T15:56:14.894Z,102815.91
2017-05-15T15:58:40.741Z,102814.13
2017-05-15T16:01:06.638Z,102815.50
2017-05-15T16:03:32.775Z,102816.84
2017-05-15T16:05:58.670Z,102819.15
2017-05-15T16:08:24.570Z,102819.59
2017-05-15T16:10:51.297Z,102818.77
2017-05-15T16:13:17.170Z,102819.62
2017-05-15T16:15:43.077Z,102820.52
2017-05-15T16:18:09.119Z,102820.14
2017-05-15T16:20:34.974Z,102824.17
2017-05-15T16:23:00.818Z,102822.41
2017-05-15T16:25:27.615Z,102826.03
2017-05-15T16:27:53.510Z,102818.84
2017-05-15T16:30:19.481Z,102819.34
2017-05-15T16:32:45.455Z,102825.21
2017-05-15T16:35:11.431Z,102818.50
2017-05-15T16:37:37.366Z,102812.27
2017-05-15T16:40:03.298Z,102817.18
2017-05-15T16:42:29.177Z,102815.89
2017-05-15T16:44:55.191Z,102823.98
2017-05-15T16:47:21.142Z,102825.80
2017-05-15T16:49:47.098Z,102824.92
2017-05-15T16:52:13.016Z,102825.38
2017-05-15T16:54:38.863Z,102820.51
2017-05-15T16:57:05.455Z,102817.41
2017-05-15T16:59:31.335Z,102825.94
2017-05-15T17:01:57.303Z,102825.00
2017-05-15T17:04:23.294Z,102821.12
2017-05-15T17:06:49.185Z,102816.73
2017-05-15T17:09:15.497Z,102824.66
2017-05-15T17:11:41.460Z,102822.48
2017-05-15T17:14:07.670Z,102822.95
2017-05-15T17:16:33.813Z,102818.52
2017-05-15T17:18:59.978Z,102828.85
2017-05-15T17:21:25.834Z,102826.59
2017-05-15T17:23:52.018Z,102823.92
2017-05-15T17:26:18.032Z,102826.60
2017-05-15T17:28:44.186Z,102825.72
2017-05-15T17:31:10.036Z,102824.81
2017-05-15T17:33:36.026Z,102822.16
2017-05-15T17:36:01.939Z,102820.14
2017-05-15T17:38:27.839Z,102825.28
2017-05-15T17:40:53.816Z,102825.70
2017-05-15T17:43:19.766Z,102828.77
2017-05-15T17:45:45.727Z,102832.30
2017-05-15T17:48:11.717Z,102833.55
2017-05-15T17:50:37.695Z,102828.86
2017-05-15T17:53:03.605Z,102836.20
2017-05-15T17:55:29.454Z,102833.90
2017-05-15T17:57:55.402Z,102830.95
2017-05-15T18:00:21.338Z,102824.88
2017-05-15T18:02:47.195Z,102819.78
2017-05-15T18:05:13.904Z,102827.70
2017-05-15T18:07:39.827Z,102827.20
2017-05-15T18:10:05.834Z,102827.12
2017-05-15T18:12:31.733Z,102828.08
2017-05-15T18:14:57.695Z,102822.91
2017-05-15T18:17:23.566Z,102823.03
2017-05-15T18:19:49.449Z,102823.99
2017-05-15T18:22:15.382Z,102823.97
2017-05-15T18:24:41.301Z,102821.34
2017-05-15T18:27:07.250Z,102799.37
2017-05-15T18:29:33.133Z,102821.45
2017-05-15T18:31:58.991Z,102820.93
2017-05-15T18:34:24.956Z,102811.76
2017-05-15T18:36:50.863Z,102835.33
2017-05-15T18:39:16.759Z,102825.48
2017-05-15T18:41:42.831Z,102838.39
2017-05-15T18:44:08.793Z,102842.95
2017-05-15T18:46:35.416Z,102836.78
2017-05-15T18:49:02.098Z,102843.49
2017-05-15T18:51:27.955Z,102850.27
2017-05-15T18:53:53.819Z,102848.92
2017-05-15T18:56:19.788Z,102850.77
2017-05-15T18:58:45.634Z,102853.95
2017-05-15T19:01:11.544Z,102853.91
2017-05-15T19:03:37.390Z,102855.26
2017-05-15T19:06:03.394Z,102857.53
2017-05-15T19:08:29.323Z,102858.00
2017-05-15T19:10:55.471Z,102854.03
2017-05-15T19:13:21.318Z,102841.67
2017-05-15T19:15:47.626Z,102848.69
2017-05-15T19:18:13.846Z,102846.00
2017-05-15T19:20:40.471Z,102846.47
2017-05-15T19:23:06.586Z,102853.21
2017-05-15T19:25:32.434Z,102849.20
2017-05-15T19:27:58.362Z,102849.62
2017-05-15T19:30:24.303Z,102843.42
2017-05-15T19:32:50.460Z,102843.86
2017-05-15T19:35:16.668Z,102848.80
2017-05-15T19:37:42.625Z,102853.30
2017-05-15T19:40:08.662Z,102854.25
2017-05-15T19:42:34.577Z,102851.10
2017-05-15T19:45:00.562Z,102856.72
2017-05-15T19:47:26.627Z,102857.59
2017-05-15T19:49:52.482Z,102858.06
2017-05-15T19:52:18.596Z,102857.22
2017-05-15T19:54:45.334Z,102859.08
2017-05-15T19:57:12.199Z,102858.20
2017-05-15T19:59:38.932Z,102861.77
2017-05-15T20:02:05.037Z,102845.98
2017-05-15T20:04:30.936Z,102864.09
2017-05-15T20:06:56.902Z,102856.59
2017-05-15T20:09:22.838Z,102859.30
2017-05-15T20:11:48.803Z,102854.84
2017-05-15T20:14:14.671Z,102852.64
2017-05-15T20:16:40.630Z,102854.89
2017-05-15T20:19:06.473Z,102854.89
2017-05-15T20:21:32.546Z,102850.42
2017-05-15T20:23:58.493Z,102847.73
2017-05-15T20:26:24.445Z,102852.64
2017-05-15T20:28:50.323Z,102843.30
2017-05-15T20:31:16.182Z,102846.45
2017-05-15T20:33:42.235Z,102834.50
2017-05-15T20:36:08.173Z,102845.59
2017-05-15T20:38:34.554Z,102842.04
2017-05-15T20:41:00.455Z,102841.22
2017-05-15T20:43:26.519Z,102835.38
2017-05-15T20:45:52.943Z,102831.84
2017-05-15T20:48:18.752Z,102835.81
2017-05-15T20:50:44.650Z,102836.28
2017-05-15T20:53:10.614Z,102842.12
2017-05-15T20:55:36.440Z,102838.99
2017-05-15T20:58:02.470Z,102830.69
2017-05-15T21:00:28.424Z,102835.89
2017-05-15T21:02:54.629Z,102828.33
2017-05-15T21:05:20.538Z,102828.80
2017-05-15T21:07:46.482Z,102826.53
2017-05-15T21:10:12.370Z,102824.77
2017-05-15T21:12:38.481Z,102818.09
2017-05-15T21:15:04.342Z,102823.48
2017-05-15T21:17:30.955Z,102820.33
2017-05-15T21:19:56.983Z,102822.58
2017-05-15T21:22:22.842Z,102817.70
2017-05-15T21:24:49.123Z,102821.78
2017-05-15T21:29:40.790Z,102819.19
2017-05-15T21:32:07.375Z,102819.65
2017-05-15T21:34:33.220Z,102818.72
2017-05-15T21:36:59.232Z,102818.31
2017-05-15T21:39:25.126Z,102818.83
2017-05-15T21:41:50.979Z,102823.34
2017-05-15T21:44:17.030Z,102821.56
2017-05-15T21:46:42.881Z,102823.41
2017-05-15T21:49:08.801Z,102817.19
2017-05-15T21:51:34.966Z,102821.67
2017-05-15T21:54:01.387Z,102813.28
2017-05-15T21:56:27.283Z,102817.70
2017-05-15T21:58:53.174Z,102813.27
2017-05-15T22:01:19.818Z,102816.80
2017-05-15T22:03:46.432Z,102814.53
2017-05-15T22:06:12.461Z,102812.75
2017-05-15T22:08:38.398Z,102809.22
2017-05-15T22:11:04.290Z,102804.75
2017-05-15T22:13:30.227Z,102805.19
2017-05-15T22:15:56.090Z,102804.34
2017-05-15T22:18:21.950Z,102792.23
2017-05-15T22:20:47.879Z,102791.80
2017-05-15T22:23:13.736Z,102787.36
2017-05-15T22:25:39.627Z,102785.10
2017-05-15T22:28:05.554Z,102786.03
2017-05-15T22:30:31.411Z,102791.84
2017-05-15T22:32:58.094Z,102787.81
2017-05-15T22:35:23.935Z,102793.19
2017-05-15T22:37:49.823Z,102773.47
2017-05-15T22:40:15.702Z,102793.21
2017-05-15T22:42:41.562Z,102786.97
2017-05-15T22:45:07.569Z,102793.23
2017-05-15T22:47:33.506Z,102792.34
2017-05-15T22:49:59.444Z,102792.34
2017-05-15T22:52:25.998Z,102790.99
2017-05-15T22:54:51.879Z,102788.75
2017-05-15T22:57:17.863Z,102790.55
2017-05-15T22:59:43.687Z,102792.30
2017-05-15T23:02:09.622Z,102782.17
2017-05-15T23:04:35.498Z,102793.67
2017-05-15T23:07:01.386Z,102791.89
2017-05-15T23:09:27.399Z,102791.45
2017-05-15T23:11:53.307Z,102790.55
2017-05-15T23:14:19.267Z,102788.75
2017-05-15T23:16:45.119Z,102783.81
2017-05-15T23:19:11.053Z,102774.86
2017-05-15T23:21:37.647Z,102777.13
2017-05-15T23:24:03.592Z,102783.84
2017-05-15T23:26:29.518Z,102782.50
2017-05-15T23:28:55.423Z,102785.66
2017-05-15T23:31:21.391Z,102778.94
2017-05-15T23:33:47.350Z,102776.28
2017-05-15T23:36:13.209Z,102773.62
2017-05-15T23:38:39.131Z,102774.12
2017-05-15T23:41:05.044Z,102770.56
2017-05-15T23:43:30.899Z,102775.05
2017-05-15T23:45:57.508Z,102768.78
2017-05-15T23:48:23.395Z,102776.89
2017-05-15T23:50:49.247Z,102765.69
2017-05-15T23:53:15.126Z,102771.49
2017-05-15T23:55:41.084Z,102764.81
2017-05-15T23:58:06.927Z,102764.81
